sensor_id;sensor_type;location;lat;lon;timestamp;P1;durP1;ratioP1;P2;durP2;ratioP2
44222;SDS011;29895;48.804;9.386;2024-01-11T00:02:18;102.63;;;36.63;;
44222;SDS011;29895;48.804;9.386;2024-01-11T00:04:43;94.50;;;35.60;;
44222;SDS011;29895;48.804;9.386;2024-01-11T00:07:09;98.57;;;35.25;;
44222;SDS011;29895;48.804;9.386;2024-01-11T00:09:41;90.07;;;34.65;;
44222;SDS011;29895;48.804;9.386;2024-01-11T00:12:07;106.60;;;38.15;;
44222;SDS011;29895;48.804;9.386;2024-01-11T00:14:33;97.85;;;35.88;;
44222;SDS011;29895;48.804;9.386;2024-01-11T00:17:00;96.88;;;34.47;;
44222;SDS011;29895;48.804;9.386;2024-01-11T00:19:25;106.18;;;36.83;;
44222;SDS011;29895;48.804;9.386;2024-01-11T00:21:51;92.20;;;35.33;;
44222;SDS011;29895;48.804;9.386;2024-01-11T00:24:17;98.75;;;36.03;;
44222;SDS011;29895;48.804;9.386;2024-01-11T00:26:42;98.40;;;35.53;;
44222;SDS011;29895;48.804;9.386;2024-01-11T00:29:08;92.40;;;35.63;;
44222;SDS011;29895;48.804;9.386;2024-01-11T00:31:34;106.03;;;36.28;;
44222;SDS011;29895;48.804;9.386;2024-01-11T00:34:00;97.68;;;36.28;;
44222;SDS011;29895;48.804;9.386;2024-01-11T00:36:26;96.03;;;35.88;;
44222;SDS011;29895;48.804;9.386;2024-01-11T00:38:53;101.35;;;37.33;;
44222;SDS011;29895;48.804;9.386;2024-01-11T00:41:19;98.30;;;34.53;;
44222;SDS011;29895;48.804;9.386;2024-01-11T00:43:45;103.93;;;36.50;;
44222;SDS011;29895;48.804;9.386;2024-01-11T00:46:10;103.30;;;36.10;;
44222;SDS011;29895;48.804;9.386;2024-01-11T00:48:36;100.32;;;35.72;;
44222;SDS011;29895;48.804;9.386;2024-01-11T00:51:03;92.65;;;35.20;;
44222;SDS011;29895;48.804;9.386;2024-01-11T00:53:30;95.55;;;35.47;;
44222;SDS011;29895;48.804;9.386;2024-01-11T00:55:59;90.32;;;33.63;;
44222;SDS011;29895;48.804;9.386;2024-01-11T00:58:25;97.30;;;34.63;;
44222;SDS011;29895;48.804;9.386;2024-01-11T01:00:50;104.30;;;34.28;;
44222;SDS011;29895;48.804;9.386;2024-01-11T01:03:18;98.63;;;34.95;;
44222;SDS011;29895;48.804;9.386;2024-01-11T01:05:44;103.68;;;36.83;;
44222;SDS011;29895;48.804;9.386;2024-01-11T01:08:11;106.25;;;36.45;;
44222;SDS011;29895;48.804;9.386;2024-01-11T01:10:36;94.20;;;35.63;;
44222;SDS011;29895;48.804;9.386;2024-01-11T01:13:02;98.07;;;35.30;;
44222;SDS011;29895;48.804;9.386;2024-01-11T01:15:28;102.60;;;34.97;;
44222;SDS011;29895;48.804;9.386;2024-01-11T01:17:54;95.53;;;34.95;;
44222;SDS011;29895;48.804;9.386;2024-01-11T01:20:19;97.53;;;35.53;;
44222;SDS011;29895;48.804;9.386;2024-01-11T01:22:45;92.15;;;34.38;;
44222;SDS011;29895;48.804;9.386;2024-01-11T01:25:10;96.43;;;34.55;;
44222;SDS011;29895;48.804;9.386;2024-01-11T01:27:36;98.63;;;34.42;;
44222;SDS011;29895;48.804;9.386;2024-01-11T01:30:02;109.25;;;36.97;;
44222;SDS011;29895;48.804;9.386;2024-01-11T01:32:28;100.93;;;35.33;;
44222;SDS011;29895;48.804;9.386;2024-01-11T01:34:55;102.55;;;35.70;;
44222;SDS011;29895;48.804;9.386;2024-01-11T01:37:21;98.90;;;35.90;;
44222;SDS011;29895;48.804;9.386;2024-01-11T01:39:46;98.85;;;35.53;;
44222;SDS011;29895;48.804;9.386;2024-01-11T01:42:12;98.65;;;34.83;;
44222;SDS011;29895;48.804;9.386;2024-01-11T01:44:38;102.38;;;37.22;;
44222;SDS011;29895;48.804;9.386;2024-01-11T01:47:06;99.68;;;34.42;;
44222;SDS011;29895;48.804;9.386;2024-01-11T01:49:32;101.88;;;36.55;;
44222;SDS011;29895;48.804;9.386;2024-01-11T01:51:58;101.45;;;36.38;;
44222;SDS011;29895;48.804;9.386;2024-01-11T01:54:24;95.35;;;34.10;;
44222;SDS011;29895;48.804;9.386;2024-01-11T01:56:50;99.28;;;36.88;;
44222;SDS011;29895;48.804;9.386;2024-01-11T01:59:17;91.25;;;32.80;;
44222;SDS011;29895;48.804;9.386;2024-01-11T02:01:44;98.45;;;35.75;;
44222;SDS011;29895;48.804;9.386;2024-01-11T02:04:09;101.63;;;35.15;;
44222;SDS011;29895;48.804;9.386;2024-01-11T02:06:35;101.45;;;34.85;;
44222;SDS011;29895;48.804;9.386;2024-01-11T02:09:02;98.53;;;34.63;;
44222;SDS011;29895;48.804;9.386;2024-01-11T02:11:28;97.72;;;35.75;;
44222;SDS011;29895;48.804;9.386;2024-01-11T02:13:55;92.45;;;34.47;;
44222;SDS011;29895;48.804;9.386;2024-01-11T02:16:22;97.82;;;33.50;;
44222;SDS011;29895;48.804;9.386;2024-01-11T02:18:48;92.65;;;34.55;;
44222;SDS011;29895;48.804;9.386;2024-01-11T02:21:14;98.35;;;33.40;;
44222;SDS011;29895;48.804;9.386;2024-01-11T02:23:54;101.82;;;35.00;;
44222;SDS011;29895;48.804;9.386;2024-01-11T02:26:29;97.00;;;34.92;;
44222;SDS011;29895;48.804;9.386;2024-01-11T02:28:55;93.75;;;32.22;;
44222;SDS011;29895;48.804;9.386;2024-01-11T02:31:21;92.78;;;37.00;;
44222;SDS011;29895;48.804;9.386;2024-01-11T02:33:47;98.15;;;34.35;;
44222;SDS011;29895;48.804;9.386;2024-01-11T02:36:13;105.40;;;35.97;;
44222;SDS011;29895;48.804;9.386;2024-01-11T02:38:38;98.15;;;34.42;;
44222;SDS011;29895;48.804;9.386;2024-01-11T02:41:07;100.07;;;33.70;;
44222;SDS011;29895;48.804;9.386;2024-01-11T02:43:33;108.78;;;37.05;;
44222;SDS011;29895;48.804;9.386;2024-01-11T02:46:01;96.75;;;35.47;;
44222;SDS011;29895;48.804;9.386;2024-01-11T02:48:28;96.10;;;32.17;;
44222;SDS011;29895;48.804;9.386;2024-01-11T02:50:55;99.07;;;34.33;;
44222;SDS011;29895;48.804;9.386;2024-01-11T02:53:21;102.68;;;33.45;;
44222;SDS011;29895;48.804;9.386;2024-01-11T02:55:46;100.57;;;35.17;;
44222;SDS011;29895;48.804;9.386;2024-01-11T02:58:12;103.22;;;35.40;;
44222;SDS011;29895;48.804;9.386;2024-01-11T03:00:38;104.25;;;36.30;;
44222;SDS011;29895;48.804;9.386;2024-01-11T03:03:03;92.88;;;31.83;;
44222;SDS011;29895;48.804;9.386;2024-01-11T03:05:29;89.25;;;33.28;;
44222;SDS011;29895;48.804;9.386;2024-01-11T03:07:55;96.43;;;33.50;;
44222;SDS011;29895;48.804;9.386;2024-01-11T03:10:20;104.10;;;38.10;;
44222;SDS011;29895;48.804;9.386;2024-01-11T03:12:46;98.20;;;34.13;;
44222;SDS011;29895;48.804;9.386;2024-01-11T03:15:14;104.72;;;35.83;;
44222;SDS011;29895;48.804;9.386;2024-01-11T03:17:40;108.07;;;38.03;;
44222;SDS011;29895;48.804;9.386;2024-01-11T03:20:06;107.63;;;38.30;;
44222;SDS011;29895;48.804;9.386;2024-01-11T03:22:32;106.00;;;36.40;;
44222;SDS011;29895;48.804;9.386;2024-01-11T03:24:58;108.05;;;36.42;;
44222;SDS011;29895;48.804;9.386;2024-01-11T03:27:24;101.43;;;36.35;;
44222;SDS011;29895;48.804;9.386;2024-01-11T03:29:49;105.05;;;36.10;;
44222;SDS011;29895;48.804;9.386;2024-01-11T03:32:15;91.60;;;33.28;;
44222;SDS011;29895;48.804;9.386;2024-01-11T03:34:41;95.30;;;34.70;;
44222;SDS011;29895;48.804;9.386;2024-01-11T03:37:06;106.72;;;34.58;;
44222;SDS011;29895;48.804;9.386;2024-01-11T03:39:32;104.72;;;37.08;;
44222;SDS011;29895;48.804;9.386;2024-01-11T03:41:59;105.68;;;36.20;;
44222;SDS011;29895;48.804;9.386;2024-01-11T03:44:24;107.50;;;35.10;;
44222;SDS011;29895;48.804;9.386;2024-01-11T03:46:50;115.97;;;36.60;;
44222;SDS011;29895;48.804;9.386;2024-01-11T03:49:16;109.32;;;36.53;;
44222;SDS011;29895;48.804;9.386;2024-01-11T03:51:42;99.18;;;35.47;;
44222;SDS011;29895;48.804;9.386;2024-01-11T03:54:08;88.13;;;34.67;;
44222;SDS011;29895;48.804;9.386;2024-01-11T03:56:36;94.45;;;33.22;;
44222;SDS011;29895;48.804;9.386;2024-01-11T03:59:04;97.22;;;35.38;;
44222;SDS011;29895;48.804;9.386;2024-01-11T04:01:30;110.28;;;37.83;;
44222;SDS011;29895;48.804;9.386;2024-01-11T04:03:56;94.22;;;34.53;;
44222;SDS011;29895;48.804;9.386;2024-01-11T04:06:22;97.45;;;35.97;;
44222;SDS011;29895;48.804;9.386;2024-01-11T04:08:49;98.78;;;35.63;;
44222;SDS011;29895;48.804;9.386;2024-01-11T04:11:15;110.72;;;38.25;;
44222;SDS011;29895;48.804;9.386;2024-01-11T04:13:41;117.40;;;39.40;;
44222;SDS011;29895;48.804;9.386;2024-01-11T04:16:07;107.97;;;36.88;;
44222;SDS011;29895;48.804;9.386;2024-01-11T04:18:33;104.22;;;34.75;;
44222;SDS011;29895;48.804;9.386;2024-01-11T04:20:59;102.32;;;34.88;;
44222;SDS011;29895;48.804;9.386;2024-01-11T04:23:24;102.68;;;37.83;;
44222;SDS011;29895;48.804;9.386;2024-01-11T04:25:50;109.20;;;37.33;;
44222;SDS011;29895;48.804;9.386;2024-01-11T04:28:16;85.97;;;32.28;;
44222;SDS011;29895;48.804;9.386;2024-01-11T04:30:42;92.93;;;34.08;;
44222;SDS011;29895;48.804;9.386;2024-01-11T04:33:09;101.82;;;35.08;;
44222;SDS011;29895;48.804;9.386;2024-01-11T04:35:35;96.53;;;33.70;;
44222;SDS011;29895;48.804;9.386;2024-01-11T04:38:03;106.43;;;36.70;;
44222;SDS011;29895;48.804;9.386;2024-01-11T04:40:29;112.47;;;36.15;;
44222;SDS011;29895;48.804;9.386;2024-01-11T04:42:54;97.85;;;34.40;;
44222;SDS011;29895;48.804;9.386;2024-01-11T04:45:20;112.22;;;37.75;;
44222;SDS011;29895;48.804;9.386;2024-01-11T04:47:46;94.55;;;34.65;;
44222;SDS011;29895;48.804;9.386;2024-01-11T04:50:15;105.65;;;36.40;;
44222;SDS011;29895;48.804;9.386;2024-01-11T04:52:40;96.13;;;33.00;;
44222;SDS011;29895;48.804;9.386;2024-01-11T04:55:06;90.40;;;32.45;;
44222;SDS011;29895;48.804;9.386;2024-01-11T04:57:32;100.07;;;34.17;;
44222;SDS011;29895;48.804;9.386;2024-01-11T04:59:58;97.00;;;33.15;;
44222;SDS011;29895;48.804;9.386;2024-01-11T05:02:24;91.35;;;34.17;;
44222;SDS011;29895;48.804;9.386;2024-01-11T05:04:49;100.95;;;34.65;;
44222;SDS011;29895;48.804;9.386;2024-01-11T05:07:15;107.47;;;36.30;;
44222;SDS011;29895;48.804;9.386;2024-01-11T05:09:40;101.70;;;34.40;;
44222;SDS011;29895;48.804;9.386;2024-01-11T05:12:06;101.13;;;35.40;;
44222;SDS011;29895;48.804;9.386;2024-01-11T05:14:32;109.55;;;36.33;;
44222;SDS011;29895;48.804;9.386;2024-01-11T05:16:58;109.68;;;38.33;;
44222;SDS011;29895;48.804;9.386;2024-01-11T05:19:23;103.03;;;35.42;;
44222;SDS011;29895;48.804;9.386;2024-01-11T05:21:49;104.40;;;36.38;;
44222;SDS011;29895;48.804;9.386;2024-01-11T05:24:14;101.60;;;35.95;;
44222;SDS011;29895;48.804;9.386;2024-01-11T05:26:40;100.47;;;36.33;;
44222;SDS011;29895;48.804;9.386;2024-01-11T05:29:06;98.00;;;36.80;;
44222;SDS011;29895;48.804;9.386;2024-01-11T05:31:31;104.22;;;36.83;;
44222;SDS011;29895;48.804;9.386;2024-01-11T05:33:57;102.30;;;35.72;;
44222;SDS011;29895;48.804;9.386;2024-01-11T05:36:22;99.80;;;35.03;;
44222;SDS011;29895;48.804;9.386;2024-01-11T05:38:48;106.80;;;37.22;;
44222;SDS011;29895;48.804;9.386;2024-01-11T05:41:14;101.05;;;35.45;;
44222;SDS011;29895;48.804;9.386;2024-01-11T05:43:40;108.50;;;36.92;;
44222;SDS011;29895;48.804;9.386;2024-01-11T05:46:07;104.68;;;37.33;;
44222;SDS011;29895;48.804;9.386;2024-01-11T05:48:33;117.70;;;38.65;;
44222;SDS011;29895;48.804;9.386;2024-01-11T05:50:58;102.85;;;35.67;;
44222;SDS011;29895;48.804;9.386;2024-01-11T05:53:25;108.88;;;36.50;;
44222;SDS011;29895;48.804;9.386;2024-01-11T05:55:52;107.22;;;37.08;;
44222;SDS011;29895;48.804;9.386;2024-01-11T05:58:18;100.97;;;36.10;;
44222;SDS011;29895;48.804;9.386;2024-01-11T06:00:44;105.25;;;35.03;;
44222;SDS011;29895;48.804;9.386;2024-01-11T06:03:14;102.95;;;36.90;;
44222;SDS011;29895;48.804;9.386;2024-01-11T06:05:40;101.78;;;35.65;;
44222;SDS011;29895;48.804;9.386;2024-01-11T06:08:06;96.10;;;34.22;;
44222;SDS011;29895;48.804;9.386;2024-01-11T06:10:32;95.38;;;33.88;;
44222;SDS011;29895;48.804;9.386;2024-01-11T06:12:58;111.00;;;35.95;;
44222;SDS011;29895;48.804;9.386;2024-01-11T06:15:23;105.72;;;36.58;;
44222;SDS011;29895;48.804;9.386;2024-01-11T06:17:49;104.82;;;36.38;;
44222;SDS011;29895;48.804;9.386;2024-01-11T06:20:15;107.05;;;38.05;;
44222;SDS011;29895;48.804;9.386;2024-01-11T06:22:41;100.40;;;35.90;;
44222;SDS011;29895;48.804;9.386;2024-01-11T06:25:06;104.60;;;38.58;;
44222;SDS011;29895;48.804;9.386;2024-01-11T06:27:32;113.35;;;38.20;;
44222;SDS011;29895;48.804;9.386;2024-01-11T06:29:58;111.93;;;38.80;;
44222;SDS011;29895;48.804;9.386;2024-01-11T06:32:24;109.88;;;39.35;;
44222;SDS011;29895;48.804;9.386;2024-01-11T06:34:49;104.75;;;37.25;;
44222;SDS011;29895;48.804;9.386;2024-01-11T06:37:15;104.93;;;36.60;;
44222;SDS011;29895;48.804;9.386;2024-01-11T06:39:41;105.85;;;37.58;;
44222;SDS011;29895;48.804;9.386;2024-01-11T06:42:06;116.10;;;37.75;;
44222;SDS011;29895;48.804;9.386;2024-01-11T06:44:32;115.15;;;38.28;;
44222;SDS011;29895;48.804;9.386;2024-01-11T06:46:58;111.18;;;37.95;;
44222;SDS011;29895;48.804;9.386;2024-01-11T06:49:23;102.68;;;35.80;;
44222;SDS011;29895;48.804;9.386;2024-01-11T06:51:49;103.80;;;36.20;;
44222;SDS011;29895;48.804;9.386;2024-01-11T06:54:14;106.03;;;36.80;;
44222;SDS011;29895;48.804;9.386;2024-01-11T06:56:40;106.90;;;38.72;;
44222;SDS011;29895;48.804;9.386;2024-01-11T06:59:06;106.18;;;37.55;;
44222;SDS011;29895;48.804;9.386;2024-01-11T07:01:32;100.10;;;36.97;;
44222;SDS011;29895;48.804;9.386;2024-01-11T07:03:58;110.75;;;37.42;;
44222;SDS011;29895;48.804;9.386;2024-01-11T07:06:24;111.72;;;38.75;;
44222;SDS011;29895;48.804;9.386;2024-01-11T07:08:49;120.82;;;45.30;;
44222;SDS011;29895;48.804;9.386;2024-01-11T07:11:15;108.97;;;43.25;;
44222;SDS011;29895;48.804;9.386;2024-01-11T07:13:41;102.28;;;40.65;;
44222;SDS011;29895;48.804;9.386;2024-01-11T07:16:07;109.53;;;37.78;;
44222;SDS011;29895;48.804;9.386;2024-01-11T07:18:33;96.68;;;35.35;;
44222;SDS011;29895;48.804;9.386;2024-01-11T07:20:59;97.05;;;33.95;;
44222;SDS011;29895;48.804;9.386;2024-01-11T07:23:26;99.32;;;35.67;;
44222;SDS011;29895;48.804;9.386;2024-01-11T07:25:52;103.88;;;36.05;;
44222;SDS011;29895;48.804;9.386;2024-01-11T07:28:18;102.82;;;35.30;;
44222;SDS011;29895;48.804;9.386;2024-01-11T07:30:44;111.20;;;39.42;;
44222;SDS011;29895;48.804;9.386;2024-01-11T07:33:11;103.95;;;36.33;;
44222;SDS011;29895;48.804;9.386;2024-01-11T07:35:37;108.82;;;38.53;;
44222;SDS011;29895;48.804;9.386;2024-01-11T07:38:02;105.63;;;36.53;;
44222;SDS011;29895;48.804;9.386;2024-01-11T07:40:29;103.65;;;37.70;;
44222;SDS011;29895;48.804;9.386;2024-01-11T07:42:54;98.43;;;34.67;;
44222;SDS011;29895;48.804;9.386;2024-01-11T07:45:20;101.68;;;37.50;;
44222;SDS011;29895;48.804;9.386;2024-01-11T07:47:46;103.57;;;36.83;;
44222;SDS011;29895;48.804;9.386;2024-01-11T07:50:12;96.40;;;34.67;;
44222;SDS011;29895;48.804;9.386;2024-01-11T07:52:38;105.78;;;38.10;;
44222;SDS011;29895;48.804;9.386;2024-01-11T07:55:06;104.55;;;38.50;;
44222;SDS011;29895;48.804;9.386;2024-01-11T07:57:33;107.90;;;37.80;;
44222;SDS011;29895;48.804;9.386;2024-01-11T07:59:59;115.60;;;40.20;;
44222;SDS011;29895;48.804;9.386;2024-01-11T08:02:25;102.47;;;38.58;;
44222;SDS011;29895;48.804;9.386;2024-01-11T08:04:51;104.18;;;38.15;;
44222;SDS011;29895;48.804;9.386;2024-01-11T08:07:17;113.00;;;42.03;;
44222;SDS011;29895;48.804;9.386;2024-01-11T08:09:43;108.25;;;39.97;;
44222;SDS011;29895;48.804;9.386;2024-01-11T08:12:11;102.65;;;39.42;;
44222;SDS011;29895;48.804;9.386;2024-01-11T08:14:38;106.97;;;38.65;;
44222;SDS011;29895;48.804;9.386;2024-01-11T08:17:04;105.28;;;39.30;;
44222;SDS011;29895;48.804;9.386;2024-01-11T08:19:33;108.65;;;37.25;;
44222;SDS011;29895;48.804;9.386;2024-01-11T08:21:59;101.53;;;39.13;;
44222;SDS011;29895;48.804;9.386;2024-01-11T08:24:25;101.35;;;38.60;;
44222;SDS011;29895;48.804;9.386;2024-01-11T08:26:50;94.22;;;37.53;;
44222;SDS011;29895;48.804;9.386;2024-01-11T08:29:16;109.40;;;36.90;;
44222;SDS011;29895;48.804;9.386;2024-01-11T08:31:44;99.70;;;38.83;;
44222;SDS011;29895;48.804;9.386;2024-01-11T08:34:10;95.28;;;37.58;;
44222;SDS011;29895;48.804;9.386;2024-01-11T08:36:36;98.22;;;39.42;;
44222;SDS011;29895;48.804;9.386;2024-01-11T08:39:03;99.45;;;37.58;;
44222;SDS011;29895;48.804;9.386;2024-01-11T08:41:33;97.03;;;36.40;;
44222;SDS011;29895;48.804;9.386;2024-01-11T08:44:00;102.07;;;39.67;;
44222;SDS011;29895;48.804;9.386;2024-01-11T08:46:27;96.55;;;38.22;;
44222;SDS011;29895;48.804;9.386;2024-01-11T08:48:55;99.50;;;37.15;;
44222;SDS011;29895;48.804;9.386;2024-01-11T08:51:22;95.97;;;37.05;;
44222;SDS011;29895;48.804;9.386;2024-01-11T08:53:47;95.07;;;38.15;;
44222;SDS011;29895;48.804;9.386;2024-01-11T08:56:13;100.20;;;39.35;;
44222;SDS011;29895;48.804;9.386;2024-01-11T08:58:41;93.80;;;36.20;;
44222;SDS011;29895;48.804;9.386;2024-01-11T09:01:06;93.47;;;36.95;;
44222;SDS011;29895;48.804;9.386;2024-01-11T09:03:36;99.07;;;38.22;;
44222;SDS011;29895;48.804;9.386;2024-01-11T09:06:02;99.82;;;39.40;;
44222;SDS011;29895;48.804;9.386;2024-01-11T09:08:29;95.88;;;38.45;;
44222;SDS011;29895;48.804;9.386;2024-01-11T09:10:58;91.25;;;35.90;;
44222;SDS011;29895;48.804;9.386;2024-01-11T09:13:24;98.40;;;38.33;;
44222;SDS011;29895;48.804;9.386;2024-01-11T09:15:53;98.45;;;38.05;;
44222;SDS011;29895;48.804;9.386;2024-01-11T09:18:20;94.35;;;36.58;;
44222;SDS011;29895;48.804;9.386;2024-01-11T09:20:46;90.38;;;36.63;;
44222;SDS011;29895;48.804;9.386;2024-01-11T09:23:12;93.90;;;38.08;;
44222;SDS011;29895;48.804;9.386;2024-01-11T09:25:38;95.78;;;36.88;;
44222;SDS011;29895;48.804;9.386;2024-01-11T09:28:05;93.00;;;37.17;;
44222;SDS011;29895;48.804;9.386;2024-01-11T09:30:30;95.05;;;37.70;;
44222;SDS011;29895;48.804;9.386;2024-01-11T09:32:56;94.78;;;38.92;;
44222;SDS011;29895;48.804;9.386;2024-01-11T09:35:23;94.93;;;38.92;;
44222;SDS011;29895;48.804;9.386;2024-01-11T09:37:49;99.55;;;39.35;;
44222;SDS011;29895;48.804;9.386;2024-01-11T09:40:15;98.38;;;37.97;;
44222;SDS011;29895;48.804;9.386;2024-01-11T09:42:42;89.30;;;36.22;;
44222;SDS011;29895;48.804;9.386;2024-01-11T09:45:09;96.65;;;39.53;;
44222;SDS011;29895;48.804;9.386;2024-01-11T09:47:38;95.55;;;39.33;;
44222;SDS011;29895;48.804;9.386;2024-01-11T09:50:04;94.70;;;39.28;;
44222;SDS011;29895;48.804;9.386;2024-01-11T09:52:31;89.55;;;38.30;;
44222;SDS011;29895;48.804;9.386;2024-01-11T09:55:00;88.15;;;36.67;;
44222;SDS011;29895;48.804;9.386;2024-01-11T09:57:30;91.57;;;38.38;;
44222;SDS011;29895;48.804;9.386;2024-01-11T09:59:57;98.97;;;38.95;;
44222;SDS011;29895;48.804;9.386;2024-01-11T10:02:23;90.28;;;38.83;;
44222;SDS011;29895;48.804;9.386;2024-01-11T10:04:51;100.38;;;37.63;;
44222;SDS011;29895;48.804;9.386;2024-01-11T10:07:18;91.32;;;40.58;;
44222;SDS011;29895;48.804;9.386;2024-01-11T10:09:46;90.32;;;38.00;;
44222;SDS011;29895;48.804;9.386;2024-01-11T10:12:12;92.10;;;37.88;;
44222;SDS011;29895;48.804;9.386;2024-01-11T10:14:38;89.72;;;38.42;;
44222;SDS011;29895;48.804;9.386;2024-01-11T10:17:05;93.13;;;38.78;;
44222;SDS011;29895;48.804;9.386;2024-01-11T10:19:32;86.15;;;37.38;;
44222;SDS011;29895;48.804;9.386;2024-01-11T10:21:57;91.45;;;38.70;;
44222;SDS011;29895;48.804;9.386;2024-01-11T10:24:26;91.10;;;38.05;;
44222;SDS011;29895;48.804;9.386;2024-01-11T10:26:56;90.22;;;37.28;;
44222;SDS011;29895;48.804;9.386;2024-01-11T10:29:27;91.85;;;39.67;;
44222;SDS011;29895;48.804;9.386;2024-01-11T10:31:55;94.32;;;38.75;;
44222;SDS011;29895;48.804;9.386;2024-01-11T10:34:22;94.78;;;38.63;;
44222;SDS011;29895;48.804;9.386;2024-01-11T10:36:48;91.95;;;38.08;;
44222;SDS011;29895;48.804;9.386;2024-01-11T10:39:15;93.82;;;37.78;;
44222;SDS011;29895;48.804;9.386;2024-01-11T10:41:44;97.20;;;40.22;;
44222;SDS011;29895;48.804;9.386;2024-01-11T10:44:20;86.22;;;38.10;;
44222;SDS011;29895;48.804;9.386;2024-01-11T10:46:47;90.13;;;37.53;;
44222;SDS011;29895;48.804;9.386;2024-01-11T10:49:17;95.38;;;38.80;;
44222;SDS011;29895;48.804;9.386;2024-01-11T10:52:02;91.93;;;39.33;;
44222;SDS011;29895;48.804;9.386;2024-01-11T10:54:31;92.15;;;38.30;;
44222;SDS011;29895;48.804;9.386;2024-01-11T10:56:59;91.30;;;38.67;;
44222;SDS011;29895;48.804;9.386;2024-01-11T10:59:28;88.47;;;39.78;;
44222;SDS011;29895;48.804;9.386;2024-01-11T11:01:59;87.10;;;39.78;;
44222;SDS011;29895;48.804;9.386;2024-01-11T11:04:33;95.05;;;37.90;;
44222;SDS011;29895;48.804;9.386;2024-01-11T11:07:00;84.00;;;37.15;;
44222;SDS011;29895;48.804;9.386;2024-01-11T11:09:27;84.88;;;38.80;;
44222;SDS011;29895;48.804;9.386;2024-01-11T11:11:56;85.70;;;36.85;;
44222;SDS011;29895;48.804;9.386;2024-01-11T11:14:24;85.95;;;37.50;;
44222;SDS011;29895;48.804;9.386;2024-01-11T11:16:49;86.55;;;37.30;;
44222;SDS011;29895;48.804;9.386;2024-01-11T11:19:17;88.40;;;37.90;;
44222;SDS011;29895;48.804;9.386;2024-01-11T11:21:47;93.03;;;38.13;;
44222;SDS011;29895;48.804;9.386;2024-01-11T11:24:13;77.22;;;37.22;;
44222;SDS011;29895;48.804;9.386;2024-01-11T11:26:41;81.82;;;37.22;;
44222;SDS011;29895;48.804;9.386;2024-01-11T11:29:07;93.47;;;41.78;;
44222;SDS011;29895;48.804;9.386;2024-01-11T11:31:37;83.57;;;37.75;;
44222;SDS011;29895;48.804;9.386;2024-01-11T11:34:07;77.35;;;35.20;;
44222;SDS011;29895;48.804;9.386;2024-01-11T11:36:36;86.82;;;39.28;;
44222;SDS011;29895;48.804;9.386;2024-01-11T11:39:02;81.53;;;36.40;;
44222;SDS011;29895;48.804;9.386;2024-01-11T11:41:30;82.50;;;37.72;;
44222;SDS011;29895;48.804;9.386;2024-01-11T11:44:00;84.55;;;38.33;;
44222;SDS011;29895;48.804;9.386;2024-01-11T11:46:27;86.70;;;38.00;;
44222;SDS011;29895;48.804;9.386;2024-01-11T11:48:53;84.60;;;37.55;;
44222;SDS011;29895;48.804;9.386;2024-01-11T11:51:19;84.22;;;37.58;;
44222;SDS011;29895;48.804;9.386;2024-01-11T11:53:49;86.63;;;38.50;;
44222;SDS011;29895;48.804;9.386;2024-01-11T11:56:17;87.05;;;38.55;;
44222;SDS011;29895;48.804;9.386;2024-01-11T11:58:45;93.38;;;39.65;;
44222;SDS011;29895;48.804;9.386;2024-01-11T12:01:11;84.82;;;38.78;;
44222;SDS011;29895;48.804;9.386;2024-01-11T12:03:40;91.60;;;40.88;;
44222;SDS011;29895;48.804;9.386;2024-01-11T12:06:07;90.55;;;39.08;;
44222;SDS011;29895;48.804;9.386;2024-01-11T12:08:37;89.70;;;39.28;;
44222;SDS011;29895;48.804;9.386;2024-01-11T12:11:06;88.50;;;39.63;;
44222;SDS011;29895;48.804;9.386;2024-01-11T12:13:32;94.57;;;40.65;;
44222;SDS011;29895;48.804;9.386;2024-01-11T12:15:57;93.10;;;40.28;;
44222;SDS011;29895;48.804;9.386;2024-01-11T12:18:23;95.93;;;39.22;;
44222;SDS011;29895;48.804;9.386;2024-01-11T12:20:49;99.80;;;39.85;;
44222;SDS011;29895;48.804;9.386;2024-01-11T12:23:18;91.80;;;38.90;;
44222;SDS011;29895;48.804;9.386;2024-01-11T12:25:44;91.60;;;40.80;;
44222;SDS011;29895;48.804;9.386;2024-01-11T12:28:10;90.32;;;40.17;;
44222;SDS011;29895;48.804;9.386;2024-01-11T12:30:36;91.13;;;38.92;;
44222;SDS011;29895;48.804;9.386;2024-01-11T12:33:03;88.13;;;39.90;;
44222;SDS011;29895;48.804;9.386;2024-01-11T12:35:30;91.05;;;40.20;;
44222;SDS011;29895;48.804;9.386;2024-01-11T12:38:14;87.88;;;39.28;;
44222;SDS011;29895;48.804;9.386;2024-01-11T12:40:40;95.38;;;42.33;;
44222;SDS011;29895;48.804;9.386;2024-01-11T12:43:06;95.03;;;41.45;;
44222;SDS011;29895;48.804;9.386;2024-01-11T12:45:33;84.35;;;38.92;;
44222;SDS011;29895;48.804;9.386;2024-01-11T12:48:00;94.72;;;41.35;;
44222;SDS011;29895;48.804;9.386;2024-01-11T12:50:28;92.95;;;39.90;;
44222;SDS011;29895;48.804;9.386;2024-01-11T12:53:13;90.10;;;40.08;;
44222;SDS011;29895;48.804;9.386;2024-01-11T12:55:45;89.18;;;40.22;;
44222;SDS011;29895;48.804;9.386;2024-01-11T12:58:18;94.50;;;40.60;;
44222;SDS011;29895;48.804;9.386;2024-01-11T13:00:45;83.90;;;38.38;;
44222;SDS011;29895;48.804;9.386;2024-01-11T13:03:11;90.55;;;39.10;;
44222;SDS011;29895;48.804;9.386;2024-01-11T13:05:36;86.55;;;39.92;;
44222;SDS011;29895;48.804;9.386;2024-01-11T13:08:03;90.03;;;39.60;;
44222;SDS011;29895;48.804;9.386;2024-01-11T13:10:33;89.07;;;40.90;;
44222;SDS011;29895;48.804;9.386;2024-01-11T13:13:01;84.07;;;38.90;;
44222;SDS011;29895;48.804;9.386;2024-01-11T13:15:27;84.60;;;38.67;;
44222;SDS011;29895;48.804;9.386;2024-01-11T13:17:54;83.43;;;39.53;;
44222;SDS011;29895;48.804;9.386;2024-01-11T13:20:21;89.90;;;39.53;;
44222;SDS011;29895;48.804;9.386;2024-01-11T13:22:46;85.60;;;39.70;;
44222;SDS011;29895;48.804;9.386;2024-01-11T13:25:12;97.20;;;41.40;;
44222;SDS011;29895;48.804;9.386;2024-01-11T13:27:38;86.93;;;38.47;;
44222;SDS011;29895;48.804;9.386;2024-01-11T13:30:04;85.50;;;40.75;;
44222;SDS011;29895;48.804;9.386;2024-01-11T13:32:31;86.93;;;40.28;;
44222;SDS011;29895;48.804;9.386;2024-01-11T13:34:57;89.55;;;40.03;;
44222;SDS011;29895;48.804;9.386;2024-01-11T13:37:23;85.43;;;39.55;;
44222;SDS011;29895;48.804;9.386;2024-01-11T13:39:49;90.22;;;40.20;;
44222;SDS011;29895;48.804;9.386;2024-01-11T13:42:14;82.20;;;38.55;;
44222;SDS011;29895;48.804;9.386;2024-01-11T13:44:41;84.25;;;38.30;;
44222;SDS011;29895;48.804;9.386;2024-01-11T13:47:07;85.43;;;39.22;;
44222;SDS011;29895;48.804;9.386;2024-01-11T13:49:32;95.85;;;41.67;;
44222;SDS011;29895;48.804;9.386;2024-01-11T13:51:59;85.25;;;39.17;;
44222;SDS011;29895;48.804;9.386;2024-01-11T13:54:25;89.05;;;39.03;;
44222;SDS011;29895;48.804;9.386;2024-01-11T13:56:51;87.50;;;38.83;;
44222;SDS011;29895;48.804;9.386;2024-01-11T13:59:17;90.97;;;40.55;;
44222;SDS011;29895;48.804;9.386;2024-01-11T14:01:43;87.30;;;39.55;;
44222;SDS011;29895;48.804;9.386;2024-01-11T14:04:09;88.35;;;40.55;;
44222;SDS011;29895;48.804;9.386;2024-01-11T14:06:34;82.68;;;38.42;;
44222;SDS011;29895;48.804;9.386;2024-01-11T14:09:00;81.85;;;38.78;;
44222;SDS011;29895;48.804;9.386;2024-01-11T14:11:27;85.22;;;40.38;;
44222;SDS011;29895;48.804;9.386;2024-01-11T14:13:55;86.53;;;40.45;;